sensor_id;sensor_type;location;lat;lon;timestamp;pressure;altitude;pressure_sealevel;temperature;humidity
44825;BME280;30542;47.928;2.138;2022-12-18T00:03:57;101060.38;;;20.10;34.45
44825;BME280;30542;47.928;2.138;2022-12-18T00:08:58;101061.44;;;20.09;34.17
44825;BME280;30542;47.928;2.138;2022-12-18T00:14:00;101056.34;;;20.07;34.35
44825;BME280;30542;47.928;2.138;2022-12-18T00:19:01;101055.28;;;20.08;34.03
44825;BME280;30542;47.928;2.138;2022-12-18T00:24:01;101031.31;;;19.97;33.92
44825;BME280;30542;47.928;2.138;2022-12-18T00:29:09;101028.38;;;19.98;33.96
44825;BME280;30542;47.928;2.138;2022-12-18T00:34:11;101034.63;;;20.04;33.97
44825;BME280;30542;47.928;2.138;2022-12-18T00:39:12;101045.88;;;20.06;34.04
44825;BME280;30542;47.928;2.138;2022-12-18T00:44:14;101051.22;;;20.06;33.91
44825;BME280;30542;47.928;2.138;2022-12-18T00:49:16;101047.50;;;20.07;34.00
44825;BME280;30542;47.928;2.138;2022-12-18T00:54:17;101045.06;;;20.05;33.68
44825;BME280;30542;47.928;2.138;2022-12-18T00:59:18;101055.78;;;20.05;33.58
44825;BME280;30542;47.928;2.138;2022-12-18T01:04:18;101068.34;;;20.05;33.83
44825;BME280;30542;47.928;2.138;2022-12-18T01:09:19;101072.06;;;20.04;33.51
44825;BME280;30542;47.928;2.138;2022-12-18T01:14:19;101077.16;;;20.05;33.58
44825;BME280;30542;47.928;2.138;2022-12-18T01:19:20;101085.44;;;20.04;33.71
44825;BME280;30542;47.928;2.138;2022-12-18T01:24:20;101087.31;;;20.03;33.55
44825;BME280;30542;47.928;2.138;2022-12-18T01:29:20;101084.63;;;20.03;33.25
44825;BME280;30542;47.928;2.138;2022-12-18T01:34:21;101094.81;;;20.06;33.42
44825;BME280;30542;47.928;2.138;2022-12-18T01:39:22;101100.97;;;20.07;33.75
44825;BME280;30542;47.928;2.138;2022-12-18T01:49:51;101096.88;;;19.99;33.35
44825;BME280;30542;47.928;2.138;2022-12-18T01:54:51;101088.75;;;19.94;33.46
44825;BME280;30542;47.928;2.138;2022-12-18T01:59:57;101084.47;;;19.93;33.16
44825;BME280;30542;47.928;2.138;2022-12-18T02:05:00;101090.63;;;19.94;33.13
44825;BME280;30542;47.928;2.138;2022-12-18T02:10:10;101093.88;;;19.96;33.14
44825;BME280;30542;47.928;2.138;2022-12-18T02:15:44;101095.75;;;19.95;33.12
44825;BME280;30542;47.928;2.138;2022-12-18T02:20:55;101081.31;;;19.96;32.93
44825;BME280;30542;47.928;2.138;2022-12-18T02:26:29;101081.31;;;19.96;33.02
44825;BME280;30542;47.928;2.138;2022-12-18T02:31:36;101070.03;;;19.94;33.29
44825;BME280;30542;47.928;2.138;2022-12-18T02:36:40;101076.53;;;19.98;32.82
44825;BME280;30542;47.928;2.138;2022-12-18T02:41:43;101073.84;;;19.98;33.00
44825;BME280;30542;47.928;2.138;2022-12-18T02:46:46;101080.25;;;19.97;33.09
44825;BME280;30542;47.928;2.138;2022-12-18T02:52:03;101083.75;;;19.98;32.86
44825;BME280;30542;47.928;2.138;2022-12-18T03:07:44;101065.81;;;19.98;32.72
44825;BME280;30542;47.928;2.138;2022-12-18T03:12:54;101060.41;;;19.93;32.48
44825;BME280;30542;47.928;2.138;2022-12-18T03:18:00;101054.59;;;19.96;33.03
44825;BME280;30542;47.928;2.138;2022-12-18T03:23:08;101058.88;;;19.97;32.83
44825;BME280;30542;47.928;2.138;2022-12-18T03:28:13;101052.22;;;20.00;32.57
44825;BME280;30542;47.928;2.138;2022-12-18T03:33:21;101047.91;;;19.99;32.43
44825;BME280;30542;47.928;2.138;2022-12-18T03:38:24;101040.78;;;20.04;32.69
44825;BME280;30542;47.928;2.138;2022-12-18T03:43:57;101043.47;;;20.04;32.51
44825;BME280;30542;47.928;2.138;2022-12-18T03:54:11;101046.69;;;20.06;32.49
44825;BME280;30542;47.928;2.138;2022-12-18T03:59:12;101031.22;;;20.08;32.36
44825;BME280;30542;47.928;2.138;2022-12-18T04:04:17;101032.34;;;20.13;32.49
44825;BME280;30542;47.928;2.138;2022-12-18T04:09:19;101029.19;;;20.16;32.31
44825;BME280;30542;47.928;2.138;2022-12-18T04:14:20;101034.03;;;20.19;32.35
44825;BME280;30542;47.928;2.138;2022-12-18T04:19:21;101030.59;;;20.23;32.37
44825;BME280;30542;47.928;2.138;2022-12-18T04:24:21;101021.53;;;20.24;32.13
44825;BME280;30542;47.928;2.138;2022-12-18T04:29:21;101008.16;;;20.24;32.19
44825;BME280;30542;47.928;2.138;2022-12-18T04:34:22;101017.16;;;20.18;32.25
44825;BME280;30542;47.928;2.138;2022-12-18T04:39:22;101023.53;;;20.12;32.28
44825;BME280;30542;47.928;2.138;2022-12-18T04:44:22;101025.06;;;20.08;32.48
44825;BME280;30542;47.928;2.138;2022-12-18T04:49:23;101027.97;;;20.06;32.37
44825;BME280;30542;47.928;2.138;2022-12-18T04:54:23;101032.28;;;20.07;32.40
44825;BME280;30542;47.928;2.138;2022-12-18T04:59:24;101039.00;;;20.10;32.42
44825;BME280;30542;47.928;2.138;2022-12-18T05:04:24;101032.28;;;20.07;32.36
44825;BME280;30542;47.928;2.138;2022-12-18T05:09:25;101056.09;;;20.09;32.30
44825;BME280;30542;47.928;2.138;2022-12-18T05:14:25;101068.72;;;20.14;32.13
44825;BME280;30542;47.928;2.138;2022-12-18T05:19:27;101078.94;;;20.17;32.25
44825;BME280;30542;47.928;2.138;2022-12-18T05:24:27;101064.03;;;20.21;32.17
44825;BME280;30542;47.928;2.138;2022-12-18T05:29:28;101052.84;;;20.24;32.08
44825;BME280;30542;47.928;2.138;2022-12-18T05:34:28;101062.78;;;20.28;31.99
44825;BME280;30542;47.928;2.138;2022-12-18T05:39:29;101065.75;;;20.32;31.94
44825;BME280;30542;47.928;2.138;2022-12-18T05:44:29;101052.09;;;20.28;31.82
44825;BME280;30542;47.928;2.138;2022-12-18T05:49:29;101059.38;;;20.33;31.91
44825;BME280;30542;47.928;2.138;2022-12-18T05:54:30;101047.13;;;20.37;31.82
44825;BME280;30542;47.928;2.138;2022-12-18T05:59:31;101047.13;;;20.37;31.69
44825;BME280;30542;47.928;2.138;2022-12-18T06:04:31;101051.94;;;20.40;31.68
44825;BME280;30542;47.928;2.138;2022-12-18T06:09:32;101045.25;;;20.38;31.65
44825;BME280;30542;47.928;2.138;2022-12-18T06:14:32;101039.16;;;20.42;31.78
44825;BME280;30542;47.928;2.138;2022-12-18T06:19:32;101048.22;;;20.41;31.71
44825;BME280;30542;47.928;2.138;2022-12-18T06:24:33;101047.97;;;20.43;31.81
44825;BME280;30542;47.928;2.138;2022-12-18T06:29:33;101042.56;;;20.38;31.73
44825;BME280;30542;47.928;2.138;2022-12-18T06:34:34;101064.59;;;20.45;31.79
44825;BME280;30542;47.928;2.138;2022-12-18T06:39:36;101056.31;;;20.46;31.64
44825;BME280;30542;47.928;2.138;2022-12-18T06:44:37;101052.56;;;20.47;31.89
44825;BME280;30542;47.928;2.138;2022-12-18T06:49:37;101066.22;;;20.46;31.72
44825;BME280;30542;47.928;2.138;2022-12-18T06:54:39;101060.06;;;20.45;31.86
44825;BME280;30542;47.928;2.138;2022-12-18T06:59:39;101053.91;;;20.45;31.85
44825;BME280;30542;47.928;2.138;2022-12-18T07:04:39;101050.97;;;20.46;32.02
44825;BME280;30542;47.928;2.138;2022-12-18T07:09:40;101047.66;;;20.39;31.31
44825;BME280;30542;47.928;2.138;2022-12-18T07:14:40;101037.84;;;20.45;31.66
44825;BME280;30542;47.928;2.138;2022-12-18T07:19:41;101019.66;;;20.47;31.71
44825;BME280;30542;47.928;2.138;2022-12-18T07:24:41;101017.25;;;20.45;31.75
44825;BME280;30542;47.928;2.138;2022-12-18T07:29:41;101021.22;;;20.43;31.02
44825;BME280;30542;47.928;2.138;2022-12-18T07:34:42;101024.16;;;20.41;30.49
44825;BME280;30542;47.928;2.138;2022-12-18T07:39:42;101024.38;;;20.40;30.44
44825;BME280;30542;47.928;2.138;2022-12-18T07:44:42;101035.88;;;20.40;30.60
44825;BME280;30542;47.928;2.138;2022-12-18T07:49:43;101027.63;;;20.42;30.89
44825;BME280;30542;47.928;2.138;2022-12-18T07:54:43;101023.63;;;20.44;30.94
44825;BME280;30542;47.928;2.138;2022-12-18T07:59:44;101020.47;;;20.47;30.98
44825;BME280;30542;47.928;2.138;2022-12-18T08:04:44;101014.75;;;20.39;31.27
44825;BME280;30542;47.928;2.138;2022-12-18T08:09:45;100993.16;;;20.23;31.27
44825;BME280;30542;47.928;2.138;2022-12-18T08:14:45;101054.38;;;20.42;31.31
44825;BME280;30542;47.928;2.138;2022-12-18T08:19:45;101059.91;;;20.35;31.39
44825;BME280;30542;47.928;2.138;2022-12-18T08:24:46;101055.06;;;20.32;31.33
44825;BME280;30542;47.928;2.138;2022-12-18T08:29:46;101062.53;;;20.30;31.51
44825;BME280;30542;47.928;2.138;2022-12-18T08:34:46;101053.94;;;20.28;31.55
44825;BME280;30542;47.928;2.138;2022-12-18T08:39:47;101040.25;;;20.24;31.67
44825;BME280;30542;47.928;2.138;2022-12-18T08:44:47;101055.69;;;20.39;31.58
44825;BME280;30542;47.928;2.138;2022-12-18T08:49:48;101051.47;;;20.65;31.36
44825;BME280;30542;47.928;2.138;2022-12-18T08:54:48;101042.47;;;20.98;31.30
44825;BME280;30542;47.928;2.138;2022-12-18T08:59:48;101034.41;;;21.25;30.88
44825;BME280;30542;47.928;2.138;2022-12-18T09:04:49;101038.72;;;21.26;30.81
44825;BME280;30542;47.928;2.138;2022-12-18T09:09:49;101041.34;;;21.21;30.90
44825;BME280;30542;47.928;2.138;2022-12-18T09:14:50;101036.19;;;21.15;30.91
44825;BME280;30542;47.928;2.138;2022-12-18T09:19:50;101026.50;;;21.08;30.96
44825;BME280;30542;47.928;2.138;2022-12-18T09:24:51;101012.19;;;20.98;31.05
44825;BME280;30542;47.928;2.138;2022-12-18T09:29:51;101019.47;;;21.02;31.15
44825;BME280;30542;47.928;2.138;2022-12-18T09:34:51;101028.03;;;20.99;31.12
44825;BME280;30542;47.928;2.138;2022-12-18T09:39:52;101030.41;;;20.96;31.36
44825;BME280;30542;47.928;2.138;2022-12-18T09:44:54;101037.38;;;20.97;32.39
44825;BME280;30542;47.928;2.138;2022-12-18T09:50:16;101048.84;;;20.92;33.45
44825;BME280;30542;47.928;2.138;2022-12-18T09:55:35;101048.28;;;20.90;33.66
44825;BME280;30542;47.928;2.138;2022-12-18T10:00:37;101053.34;;;20.87;33.80
44825;BME280;30542;47.928;2.138;2022-12-18T10:22:53;101052.69;;;20.74;34.84
44825;BME280;30542;47.928;2.138;2022-12-18T10:27:57;101057.50;;;20.77;34.94
44825;BME280;30542;47.928;2.138;2022-12-18T10:33:01;101049.91;;;20.69;35.66
44825;BME280;30542;47.928;2.138;2022-12-18T10:38:23;101050.66;;;20.65;35.97
44825;BME280;30542;47.928;2.138;2022-12-18T10:43:38;101039.38;;;20.57;36.17
44825;BME280;30542;47.928;2.138;2022-12-18T10:48:55;101030.44;;;20.52;36.48
44825;BME280;30542;47.928;2.138;2022-12-18T10:54:21;101006.63;;;20.50;36.80
44825;BME280;30542;47.928;2.138;2022-12-18T10:59:21;100995.13;;;20.50;36.96
44825;BME280;30542;47.928;2.138;2022-12-18T11:04:30;100995.44;;;20.53;36.68
44825;BME280;30542;47.928;2.138;2022-12-18T11:09:33;100998.69;;;20.60;37.01
44825;BME280;30542;47.928;2.138;2022-12-18T11:15:13;100987.81;;;20.67;37.06
44825;BME280;30542;47.928;2.138;2022-12-18T11:25:27;100975.06;;;20.79;36.87
44825;BME280;30542;47.928;2.138;2022-12-18T11:30:30;100982.66;;;20.88;37.03
44825;BME280;30542;47.928;2.138;2022-12-18T11:35:56;100968.81;;;20.96;37.81
44825;BME280;30542;47.928;2.138;2022-12-18T11:46:24;100960.50;;;20.97;37.38
44825;BME280;30542;47.928;2.138;2022-12-18T11:51:38;100964.06;;;21.03;37.46
44825;BME280;30542;47.928;2.138;2022-12-18T11:56:44;100962.19;;;21.03;37.32
44825;BME280;30542;47.928;2.138;2022-12-18T12:01:53;100957.31;;;21.00;37.34
44825;BME280;30542;47.928;2.138;2022-12-18T12:07:25;100944.72;;;20.96;37.53
44825;BME280;30542;47.928;2.138;2022-12-18T12:18:13;100932.94;;;20.97;38.73
44825;BME280;30542;47.928;2.138;2022-12-18T12:29:26;100919.03;;;21.00;39.96
44825;BME280;30542;47.928;2.138;2022-12-18T12:39:44;100908.84;;;21.02;40.13
44825;BME280;30542;47.928;2.138;2022-12-18T12:44:52;100915.59;;;21.04;40.00
44825;BME280;30542;47.928;2.138;2022-12-18T12:49:55;100921.22;;;21.03;39.88
44825;BME280;30542;47.928;2.138;2022-12-18T12:54:57;100921.47;;;21.06;40.26
44825;BME280;30542;47.928;2.138;2022-12-18T13:00:15;100910.75;;;21.06;40.51
44825;BME280;30542;47.928;2.138;2022-12-18T13:05:43;100911.84;;;21.05;40.20
44825;BME280;30542;47.928;2.138;2022-12-18T13:10:46;100915.63;;;21.09;40.89
44825;BME280;30542;47.928;2.138;2022-12-18T13:16:04;100902.25;;;21.15;40.98
44825;BME280;30542;47.928;2.138;2022-12-18T13:36:32;100878.84;;;21.32;40.41
44825;BME280;30542;47.928;2.138;2022-12-18T13:41:33;100867.84;;;21.33;39.98
44825;BME280;30542;47.928;2.138;2022-12-18T13:46:48;100868.94;;;21.38;39.63
44825;BME280;30542;47.928;2.138;2022-12-18T13:51:52;100848.88;;;21.40;39.62
44825;BME280;30542;47.928;2.138;2022-12-18T13:56:53;100852.09;;;21.42;39.40
44825;BME280;30542;47.928;2.138;2022-12-18T14:02:00;100831.97;;;21.40;38.87
44825;BME280;30542;47.928;2.138;2022-12-18T14:12:02;100824.66;;;21.30;37.68
44825;BME280;30542;47.928;2.138;2022-12-18T14:17:21;100825.44;;;21.25;37.59
44825;BME280;30542;47.928;2.138;2022-12-18T14:22:25;100824.63;;;21.20;37.50
44825;BME280;30542;47.928;2.138;2022-12-18T14:27:30;100811.47;;;21.18;37.85
44825;BME280;30542;47.928;2.138;2022-12-18T14:32:30;100815.22;;;21.17;38.01
44825;BME280;30542;47.928;2.138;2022-12-18T14:37:30;100820.84;;;21.16;37.77
44825;BME280;30542;47.928;2.138;2022-12-18T14:42:31;100826.16;;;21.10;37.62
44825;BME280;30542;47.928;2.138;2022-12-18T14:47:32;100825.88;;;21.07;37.79
44825;BME280;30542;47.928;2.138;2022-12-18T14:52:32;100823.72;;;21.04;37.73
44825;BME280;30542;47.928;2.138;2022-12-18T14:57:36;100833.88;;;21.02;37.75
44825;BME280;30542;47.928;2.138;2022-12-18T15:02:37;100827.69;;;20.96;37.77
44825;BME280;30542;47.928;2.138;2022-12-18T15:07:45;100823.63;;;20.94;37.57
44825;BME280;30542;47.928;2.138;2022-12-18T15:12:49;100820.69;;;20.90;37.67
44825;BME280;30542;47.928;2.138;2022-12-18T15:17:57;100825.22;;;20.90;37.72
44825;BME280;30542;47.928;2.138;2022-12-18T15:22:57;100806.69;;;20.78;37.50
44825;BME280;30542;47.928;2.138;2022-12-18T15:27:57;100828.13;;;20.83;37.41
44825;BME280;30542;47.928;2.138;2022-12-18T15:33:24;100825.44;;;20.83;37.40
44825;BME280;30542;47.928;2.138;2022-12-18T15:38:26;100819.03;;;20.84;37.27
44825;BME280;30542;47.928;2.138;2022-12-18T15:43:29;100810.50;;;20.87;37.30
44825;BME280;30542;47.928;2.138;2022-12-18T15:48:41;100810.22;;;20.89;37.31
44825;BME280;30542;47.928;2.138;2022-12-18T15:53:42;100808.34;;;20.89;37.22
44825;BME280;30542;47.928;2.138;2022-12-18T15:58:43;100802.47;;;20.92;37.27
44825;BME280;30542;47.928;2.138;2022-12-18T16:03:43;100790.41;;;20.90;37.22
44825;BME280;30542;47.928;2.138;2022-12-18T16:08:44;100800.88;;;20.91;37.00
44825;BME280;30542;47.928;2.138;2022-12-18T16:13:44;100792.03;;;20.91;36.97
44825;BME280;30542;47.928;2.138;2022-12-18T16:18:44;100799.28;;;20.90;36.94
44825;BME280;30542;47.928;2.138;2022-12-18T16:23:45;100798.19;;;20.91;36.91
44825;BME280;30542;47.928;2.138;2022-12-18T16:28:45;100798.44;;;20.90;36.89
44825;BME280;30542;47.928;2.138;2022-12-18T16:33:46;100788.56;;;20.90;36.86
44825;BME280;30542;47.928;2.138;2022-12-18T16:38:46;100789.06;;;20.87;36.81
44825;BME280;30542;47.928;2.138;2022-12-18T16:43:46;100775.69;;;20.87;36.77
44825;BME280;30542;47.928;2.138;2022-12-18T16:48:47;100776.22;;;20.89;36.54
44825;BME280;30542;47.928;2.138;2022-12-18T16:53:47;100751.31;;;20.89;36.74
44825;BME280;30542;47.928;2.138;2022-12-18T16:58:52;100731.44;;;20.79;36.60
44825;BME280;30542;47.928;2.138;2022-12-18T17:03:57;100751.59;;;20.87;36.49
44825;BME280;30542;47.928;2.138;2022-12-18T17:09:00;100740.06;;;20.87;36.57
44825;BME280;30542;47.928;2.138;2022-12-18T17:14:09;100741.94;;;20.86;36.43
44825;BME280;30542;47.928;2.138;2022-12-18T17:19:10;100737.63;;;20.85;36.41
44825;BME280;30542;47.928;2.138;2022-12-18T17:24:10;100729.59;;;20.85;36.43
44825;BME280;30542;47.928;2.138;2022-12-18T17:29:14;100725.31;;;20.84;36.13
44825;BME280;30542;47.928;2.138;2022-12-18T17:34:15;100724.72;;;20.77;36.29
44825;BME280;30542;47.928;2.138;2022-12-18T17:39:18;100746.75;;;20.84;36.18
44825;BME280;30542;47.928;2.138;2022-12-18T17:44:19;100734.44;;;20.83;36.04
44825;BME280;30542;47.928;2.138;2022-12-18T17:49:19;100732.81;;;20.82;36.23
44825;BME280;30542;47.928;2.138;2022-12-18T17:54:20;100730.13;;;20.82;35.92
44825;BME280;30542;47.928;2.138;2022-12-18T17:59:21;100737.09;;;20.83;35.84
44825;BME280;30542;47.928;2.138;2022-12-18T18:04:21;100729.00;;;20.73;35.92
44825;BME280;30542;47.928;2.138;2022-12-18T18:09:22;100739.78;;;20.83;35.83
44825;BME280;30542;47.928;2.138;2022-12-18T18:14:22;100745.91;;;20.78;35.71
44825;BME280;30542;47.928;2.138;2022-12-18T18:19:23;100762.22;;;20.77;35.72
44825;BME280;30542;47.928;2.138;2022-12-18T18:24:24;100775.66;;;20.82;35.67
44825;BME280;30542;47.928;2.138;2022-12-18T18:29:25;100778.88;;;20.84;35.63
44825;BME280;30542;47.928;2.138;2022-12-18T18:34:28;100785.28;;;20.83;35.73
44825;BME280;30542;47.928;2.138;2022-12-18T18:39:29;100766.75;;;20.76;35.90
44825;BME280;30542;47.928;2.138;2022-12-18T18:44:29;100775.91;;;20.80;35.94
44825;BME280;30542;47.928;2.138;2022-12-18T18:49:30;100782.06;;;20.81;36.02
44825;BME280;30542;47.928;2.138;2022-12-18T18:54:31;100766.53;;;20.78;36.17
44825;BME280;30542;47.928;2.138;2022-12-18T18:59:31;100758.50;;;20.78;35.96
44825;BME280;30542;47.928;2.138;2022-12-18T19:04:32;100752.59;;;20.81;36.08
44825;BME280;30542;47.928;2.138;2022-12-18T19:09:33;100731.19;;;20.81;36.19
44825;BME280;30542;47.928;2.138;2022-12-18T19:14:35;100739.22;;;20.81;36.06
44825;BME280;30542;47.928;2.138;2022-12-18T19:19:35;100748.88;;;20.82;36.05
44825;BME280;30542;47.928;2.138;2022-12-18T19:24:36;100738.41;;;20.80;36.22
44825;BME280;30542;47.928;2.138;2022-12-18T19:29:36;100743.53;;;20.82;36.09
44825;BME280;30542;47.928;2.138;2022-12-18T19:34:37;100745.13;;;20.83;36.25
44825;BME280;30542;47.928;2.138;2022-12-18T19:39:38;100746.75;;;20.84;36.50
44825;BME280;30542;47.928;2.138;2022-12-18T19:44:38;100737.63;;;20.85;36.15
44825;BME280;30542;47.928;2.138;2022-12-18T19:49:38;100713.00;;;20.83;36.18
44825;BME280;30542;47.928;2.138;2022-12-18T19:54:39;100718.34;;;20.83;36.10
44825;BME280;30542;47.928;2.138;2022-12-18T19:59:39;100726.91;;;20.85;36.30
44825;BME280;30542;47.928;2.138;2022-12-18T20:04:40;100722.09;;;20.82;36.17
44825;BME280;30542;47.928;2.138;2022-12-18T20:09:40;100732.81;;;20.82;36.08
44825;BME280;30542;47.928;2.138;2022-12-18T20:14:41;100738.72;;;20.84;36.03
44825;BME280;30542;47.928;2.138;2022-12-18T20:19:41;100739.25;;;20.86;35.81
44825;BME280;30542;47.928;2.138;2022-12-18T20:24:42;100737.41;;;20.87;36.08
44825;BME280;30542;47.928;2.138;2022-12-18T20:29:42;100732.03;;;20.87;35.81
44825;BME280;30542;47.928;2.138;2022-12-18T20:34:43;100714.09;;;20.87;35.79
44825;BME280;30542;47.928;2.138;2022-12-18T20:39:43;100719.44;;;20.82;36.00
44825;BME280;30542;47.928;2.138;2022-12-18T20:44:44;100725.59;;;20.88;36.14
44825;BME280;30542;47.928;2.138;2022-12-18T20:49:44;100729.09;;;20.88;36.08
44825;BME280;30542;47.928;2.138;2022-12-18T20:54:45;100724.25;;;20.85;36.06
44825;BME280;30542;47.928;2.138;2022-12-18T20:59:45;100712.44;;;20.81;36.05
44825;BME280;30542;47.928;2.138;2022-12-18T21:04:46;100728.28;;;20.88;36.02
44825;BME280;30542;47.928;2.138;2022-12-18T21:09:46;100718.88;;;20.80;35.99
44825;BME280;30542;47.928;2.138;2022-12-18T21:14:47;100735.75;;;20.85;36.16
44825;BME280;30542;47.928;2.138;2022-12-18T21:19:47;100723.72;;;20.83;36.10
44825;BME280;30542;47.928;2.138;2022-12-18T21:24:47;100723.16;;;20.81;35.91
44825;BME280;30542;47.928;2.138;2022-12-18T21:29:48;100735.50;;;20.82;36.14
44825;BME280;30542;47.928;2.138;2022-12-18T21:34:49;100721.03;;;20.83;35.98
44825;BME280;30542;47.928;2.138;2022-12-18T21:39:51;100716.47;;;20.83;36.08
44825;BME280;30542;47.928;2.138;2022-12-18T21:44:51;100711.94;;;20.84;35.90
44825;BME280;30542;47.928;2.138;2022-12-18T21:49:52;100713.00;;;20.83;35.95
44825;BME280;30542;47.928;2.138;2022-12-18T21:54:52;100723.72;;;20.83;36.00
44825;BME280;30542;47.928;2.138;2022-12-18T21:59:53;100729.06;;;20.83;36.08
44825;BME280;30542;47.928;2.138;2022-12-18T22:04:53;100728.50;;;20.81;36.11
44825;BME280;30542;47.928;2.138;2022-12-18T22:09:53;100726.09;;;20.79;35.97
44825;BME280;30542;47.928;2.138;2022-12-18T22:14:54;100725.28;;;20.79;36.06
44825;BME280;30542;47.928;2.138;2022-12-18T22:19:54;100729.28;;;20.76;36.13
44825;BME280;30542;47.928;2.138;2022-12-18T22:24:54;100731.13;;;20.71;36.07
44825;BME280;30542;47.928;2.138;2022-12-18T22:29:55;100730.53;;;20.64;36.10
44825;BME280;30542;47.928;2.138;2022-12-18T22:35:05;100744.44;;;20.60;36.24
44825;BME280;30542;47.928;2.138;2022-12-18T22:40:06;100747.09;;;20.55;36.18
44825;BME280;30542;47.928;2.138;2022-12-18T22:45:07;100742.97;;;20.48;36.17
44825;BME280;30542;47.928;2.138;2022-12-18T22:50:11;100731.13;;;20.33;36.43
44825;BME280;30542;47.928;2.138;2022-12-18T22:55:12;100742.13;;;20.37;36.65
44825;BME280;30542;47.928;2.138;2022-12-18T23:00:12;100750.06;;;20.32;36.40
44825;BME280;30542;47.928;2.138;2022-12-18T23:05:13;100741.50;;;20.30;36.67
44825;BME280;30542;47.928;2.138;2022-12-18T23:10:13;100731.59;;;20.25;36.60
44825;BME280;30542;47.928;2.138;2022-12-18T23:15:14;100737.69;;;20.21;36.40
44825;BME280;30542;47.928;2.138;2022-12-18T23:20:14;100735.78;;;20.16;36.69
44825;BME280;30542;47.928;2.138;2022-12-18T23:25:14;100728.53;;;20.11;36.78
44825;BME280;30542;47.928;2.138;2022-12-18T23:30:15;100720.44;;;20.06;36.81
44825;BME280;30542;47.928;2.138;2022-12-18T23:35:16;100719.69;;;20.11;36.65
44825;BME280;30542;47.928;2.138;2022-12-18T23:40:16;100711.13;;;20.09;36.60
44825;BME280;30542;47.928;2.138;2022-12-18T23:45:16;100702.53;;;20.07;36.84
44825;BME280;30542;47.928;2.138;2022-12-18T23:50:17;100700.91;;;20.06;36.60
44825;BME280;30542;47.928;2.138;2022-12-18T23:55:17;100700.38;;;20.04;36.58
